Time;durP1;ratioP1;P1;durP2;ratioP2;P2;SDS_P1;SDS_P2;PMS_P1;PMS_P2;Temp;Humidity;BMP_temperature;BMP_pressure;BME280_temperature;BME280_humidity;BME280_pressure;Samples;Min_cycle;Max_cycle;Signal;HPM_P1;HPM_P2
2022/12/02 00:01:53;;;;;;;4.63;1.85;;;5.90;99.90;;;;;;5006931;28;20482;-64
2022/12/02 00:04:25;;;;;;;2.35;2.15;;;5.90;99.90;;;;;;5010051;28;20161;-64
2022/12/02 00:06:53;;;;;;;0.45;0.45;;;6.00;99.90;;;;;;5016884;28;20046;-64
2022/12/02 00:09:29;;;;;;;1.73;1.63;;;6.00;99.90;;;;;;5025666;28;20045;-64
2022/12/02 00:11:56;;;;;;;2.45;1.23;;;6.10;99.90;;;;;;5022962;28;20099;-64
2022/12/02 00:14:24;;;;;;;2.83;2.63;;;6.00;99.90;;;;;;5014043;28;20046;-64
2022/12/02 00:16:50;;;;;;;2.85;1.83;;;5.90;99.90;;;;;;5021262;28;20492;-64
2022/12/02 00:19:16;;;;;;;1.55;1.52;;;5.90;99.90;;;;;;5034515;28;20048;-64
2022/12/02 00:21:42;;;;;;;21.42;3.30;;;5.90;99.90;;;;;;5012634;28;20394;-64
2022/12/02 00:24:08;;;;;;;1.50;1.42;;;5.80;99.90;;;;;;5006750;28;20067;-64
2022/12/02 00:26:34;;;;;;;3.17;1.08;;;5.80;99.90;;;;;;5008110;28;20064;-64
2022/12/02 00:29:00;;;;;;;3.13;1.98;;;5.70;99.90;;;;;;5008456;28;20057;-64
2022/12/02 00:31:25;;;;;;;9.90;3.95;;;5.70;99.90;;;;;;5017443;28;20053;-64
2022/12/02 00:33:51;;;;;;;0.82;0.82;;;5.80;99.90;;;;;;5012787;28;20044;-64
2022/12/02 00:36:16;;;;;;;2.65;2.40;;;5.80;99.90;;;;;;5026872;28;20050;-64
2022/12/02 00:38:42;;;;;;;9.32;2.30;;;5.90;99.90;;;;;;5019619;28;20072;-64
2022/12/02 00:41:08;;;;;;;1.95;1.65;;;5.80;99.90;;;;;;5036726;28;20048;-64
2022/12/02 00:46:36;;;;;;;1.88;1.77;;;5.70;99.90;;;;;;5017783;28;20057;-64
2022/12/02 00:49:14;;;;;;;6.45;3.97;;;5.70;99.90;;;;;;5006610;28;20045;-64
2022/12/02 00:51:40;;;;;;;0.90;0.90;;;5.70;99.90;;;;;;5011552;28;20065;-64
2022/12/02 00:54:06;;;;;;;7.57;1.42;;;5.60;99.90;;;;;;5011532;28;20053;-64
2022/12/02 00:56:33;;;;;;;2.67;1.50;;;5.70;99.90;;;;;;5015983;28;20050;-64
2022/12/02 00:58:58;;;;;;;5.10;3.00;;;5.70;99.90;;;;;;5011308;28;20095;-64
2022/12/02 01:01:25;;;;;;;0.20;0.20;;;5.70;99.90;;;;;;5024052;28;20119;-64
2022/12/02 01:03:50;;;;;;;1.42;1.33;;;5.60;99.90;;;;;;5012318;28;20426;-64
2022/12/02 01:06:16;;;;;;;1.65;1.60;;;5.60;99.90;;;;;;5011490;28;20045;-64
2022/12/02 01:08:42;;;;;;;0.98;0.98;;;5.60;99.90;;;;;;5011687;28;20088;-64
2022/12/02 01:11:08;;;;;;;1.00;1.00;;;5.60;99.90;;;;;;5025321;28;20037;-64
2022/12/02 01:13:34;;;;;;;1.45;1.35;;;5.50;99.90;;;;;;5010949;28;20129;-64
2022/12/02 01:16:00;;;;;;;1.23;1.00;;;5.50;99.90;;;;;;5015377;28;20125;-64
2022/12/02 01:18:25;;;;;;;0.75;0.75;;;5.50;99.90;;;;;;5010464;28;20045;-64
2022/12/02 01:20:51;;;;;;;5.85;2.40;;;5.50;99.90;;;;;;5017404;28;20081;-64
2022/12/02 01:23:17;;;;;;;9.30;1.65;;;5.50;99.90;;;;;;5030722;28;20048;-64
2022/12/02 01:25:43;;;;;;;0.28;0.28;;;5.50;99.90;;;;;;5009510;28;20140;-65
2022/12/02 01:28:08;;;;;;;1.73;1.63;;;5.50;99.90;;;;;;5050032;28;20148;-65
2022/12/02 01:30:34;;;;;;;0.85;0.85;;;5.50;99.90;;;;;;5051159;28;20057;-64
2022/12/02 01:33:00;;;;;;;2.78;2.65;;;5.50;99.90;;;;;;5040200;28;20054;-65
2022/12/02 01:35:26;;;;;;;1.33;1.23;;;5.40;99.90;;;;;;5015187;28;20045;-64
2022/12/02 01:37:52;;;;;;;1.48;1.42;;;5.50;99.90;;;;;;5025176;28;20136;-64
2022/12/02 01:40:18;;;;;;;3.13;1.48;;;5.40;99.90;;;;;;5015196;28;20148;-64
2022/12/02 01:42:45;;;;;;;0.85;0.85;;;5.40;99.90;;;;;;5013209;28;20072;-65
2022/12/02 01:45:12;;;;;;;2.15;1.52;;;5.40;99.90;;;;;;5011455;28;20045;-65
2022/12/02 01:47:38;;;;;;;1.52;1.45;;;5.40;99.90;;;;;;5009555;28;20077;-64
2022/12/02 01:50:07;;;;;;;4.78;3.95;;;5.40;99.90;;;;;;5012414;28;20046;-64
2022/12/02 01:52:32;;;;;;;2.22;2.08;;;5.40;99.90;;;;;;5010912;28;20145;-65
2022/12/02 01:54:58;;;;;;;9.45;3.97;;;5.30;99.90;;;;;;5012126;28;20120;-64
2022/12/02 01:57:28;;;;;;;0.57;0.57;;;5.40;99.90;;;;;;5014615;28;20104;-64
2022/12/02 01:59:55;;;;;;;0.80;0.80;;;5.30;99.90;;;;;;5010452;28;20054;-65
2022/12/02 02:02:23;;;;;;;0.95;0.95;;;5.40;99.90;;;;;;5041235;28;20378;-64
2022/12/02 02:04:49;;;;;;;0.73;0.73;;;5.30;99.90;;;;;;5017009;28;20050;-65
2022/12/02 02:07:14;;;;;;;0.10;0.10;;;5.40;99.90;;;;;;5011446;28;20099;-64
2022/12/02 02:09:40;;;;;;;0.43;0.43;;;5.30;99.90;;;;;;5010240;28;20045;-64
2022/12/02 02:12:06;;;;;;;1.80;1.65;;;5.20;99.90;;;;;;5015638;28;20049;-64
2022/12/02 02:14:31;;;;;;;0.20;0.20;;;5.20;99.90;;;;;;5024702;28;20099;-65
2022/12/02 02:16:57;;;;;;;0.85;0.85;;;5.20;99.90;;;;;;5021418;28;20038;-64
2022/12/02 02:19:23;;;;;;;0.93;0.93;;;5.20;99.90;;;;;;5012071;28;20061;-64
2022/12/02 02:21:52;;;;;;;0.63;0.63;;;5.30;99.90;;;;;;5029455;28;20049;-64
2022/12/02 02:24:17;;;;;;;0.32;0.32;;;5.20;99.90;;;;;;5022399;28;20045;-64
2022/12/02 02:26:43;;;;;;;0.65;0.65;;;5.20;99.90;;;;;;5019132;28;20435;-64
2022/12/02 02:29:09;;;;;;;1.23;1.23;;;5.30;99.90;;;;;;5009869;28;20050;-65
2022/12/02 02:31:35;;;;;;;0.15;0.15;;;5.20;99.90;;;;;;5010196;28;20058;-65
2022/12/02 02:34:00;;;;;;;1.20;1.05;;;5.20;99.90;;;;;;5014415;28;20165;-64
2022/12/02 02:36:26;;;;;;;0.25;0.25;;;5.10;99.90;;;;;;5009695;28;20126;-65
2022/12/02 02:38:52;;;;;;;0.85;0.85;;;5.10;99.90;;;;;;5009122;28;20052;-64
2022/12/02 02:41:18;;;;;;;1.25;1.17;;;5.20;99.90;;;;;;5013183;28;20076;-64
2022/12/02 02:43:44;;;;;;;5.43;1.48;;;5.10;99.90;;;;;;5015998;28;20474;-64
2022/12/02 02:46:10;;;;;;;2.10;1.58;;;5.10;99.90;;;;;;5046778;28;20049;-64
2022/12/02 02:48:36;;;;;;;0.73;0.73;;;5.10;99.90;;;;;;5022748;28;20042;-64
2022/12/02 02:51:02;;;;;;;2.33;2.20;;;5.10;99.90;;;;;;5017145;28;20405;-64
2022/12/02 02:53:28;;;;;;;1.98;1.88;;;5.10;99.90;;;;;;5029212;28;20035;-65
2022/12/02 02:55:54;;;;;;;0.70;0.70;;;5.20;99.90;;;;;;5022134;28;20109;-64
2022/12/02 02:58:23;;;;;;;0.90;0.90;;;5.20;99.90;;;;;;5009083;28;20041;-64
2022/12/02 03:01:01;;;;;;;3.33;1.88;;;5.20;99.90;;;;;;5029383;28;20406;-65
2022/12/02 03:03:32;;;;;;;0.20;0.20;;;5.10;99.90;;;;;;5018554;28;20092;-64
2022/12/02 03:05:59;;;;;;;1.42;1.35;;;5.20;99.90;;;;;;5023539;28;20046;-64
2022/12/02 03:08:27;;;;;;;3.95;1.60;;;5.20;99.90;;;;;;5009181;28;20042;-64
2022/12/02 03:10:55;;;;;;;0.88;0.88;;;5.10;99.90;;;;;;5015979;28;20527;-64
2022/12/02 03:13:22;;;;;;;1.08;0.98;;;5.00;99.90;;;;;;5009181;28;20033;-64
2022/12/02 03:15:48;;;;;;;1.70;1.60;;;5.00;99.90;;;;;;5023261;28;20045;-64
2022/12/02 03:18:14;;;;;;;0.40;0.40;;;5.10;99.90;;;;;;5016716;28;20041;-64
2022/12/02 03:20:40;;;;;;;3.08;2.83;;;5.20;99.90;;;;;;5028549;28;20285;-64
2022/12/02 03:23:06;;;;;;;3.35;2.13;;;5.10;99.90;;;;;;5027868;28;20041;-64
2022/12/02 03:25:32;;;;;;;0.70;0.70;;;5.00;99.90;;;;;;5035216;28;20045;-64
2022/12/02 03:27:57;;;;;;;0.30;0.30;;;5.00;99.90;;;;;;5016380;28;20038;-64
2022/12/02 03:30:23;;;;;;;3.13;1.90;;;5.10;99.90;;;;;;5009111;28;20084;-64
2022/12/02 03:32:49;;;;;;;1.10;1.05;;;5.10;99.90;;;;;;5008801;28;20069;-65
2022/12/02 03:35:15;;;;;;;0.47;0.47;;;5.10;99.90;;;;;;5014953;28;20481;-64
2022/12/02 03:37:41;;;;;;;0.22;0.22;;;5.00;99.90;;;;;;5008618;28;20056;-64
2022/12/02 03:40:07;;;;;;;1.55;1.48;;;5.00;99.90;;;;;;5018506;28;20052;-65
2022/12/02 03:42:33;;;;;;;1.98;0.85;;;5.00;99.90;;;;;;5012451;28;20057;-65
2022/12/02 03:44:59;;;;;;;3.10;2.35;;;5.00;99.90;;;;;;5008892;28;20475;-65
2022/12/02 03:47:24;;;;;;;1.10;1.10;;;5.10;99.90;;;;;;5007568;28;20038;-65
2022/12/02 03:49:50;;;;;;;1.17;1.10;;;5.10;99.90;;;;;;5018012;28;20076;-65
2022/12/02 03:52:15;;;;;;;1.80;1.70;;;5.10;99.90;;;;;;5018178;28;20041;-64
2022/12/02 03:54:41;;;;;;;2.55;1.35;;;5.10;99.90;;;;;;5031728;28;20049;-65
2022/12/02 03:57:07;;;;;;;0.30;0.30;;;5.10;99.90;;;;;;5027621;28;20045;-64
2022/12/02 03:59:33;;;;;;;0.40;0.40;;;5.00;99.90;;;;;;5028658;28;20046;-65
2022/12/02 04:01:59;;;;;;;3.28;2.00;;;5.00;99.90;;;;;;5022288;28;20092;-65
2022/12/02 04:04:24;;;;;;;2.00;1.90;;;4.90;99.90;;;;;;5008698;28;20122;-65
2022/12/02 04:06:50;;;;;;;3.70;1.98;;;4.90;99.90;;;;;;5012942;28;20034;-65
2022/12/02 04:09:16;;;;;;;1.45;1.30;;;4.90;99.90;;;;;;5025439;28;21019;-65
2022/12/02 04:11:41;;;;;;;2.30;1.08;;;4.90;99.90;;;;;;5014469;28;20065;-65
2022/12/02 04:14:07;;;;;;;0.52;0.52;;;4.90;99.90;;;;;;5008571;28;20046;-65
2022/12/02 04:16:32;;;;;;;1.83;1.42;;;5.00;99.90;;;;;;5009793;28;20054;-65
2022/12/02 04:18:58;;;;;;;1.65;1.23;;;5.00;99.90;;;;;;5025413;28;20445;-65
2022/12/02 04:21:23;;;;;;;3.15;2.95;;;5.10;99.90;;;;;;5011477;28;20051;-65
2022/12/02 04:23:53;;;;;;;4.55;1.45;;;5.00;99.90;;;;;;5028505;28;20489;-64
2022/12/02 04:26:20;;;;;;;1.30;0.93;;;5.00;99.90;;;;;;5029391;28;20521;-65
2022/12/02 04:28:45;;;;;;;0.20;0.20;;;5.00;99.90;;;;;;5011662;28;20397;-64
2022/12/02 04:31:14;;;;;;;2.28;2.05;;;5.00;99.90;;;;;;5012683;28;20062;-64
2022/12/02 04:33:40;;;;;;;1.45;0.82;;;4.90;99.90;;;;;;5015055;28;20058;-64
2022/12/02 04:36:05;;;;;;;1.65;1.55;;;4.90;99.90;;;;;;5015622;28;20100;-64
2022/12/02 04:38:31;;;;;;;2.38;0.77;;;4.90;99.90;;;;;;5011998;28;20084;-64
2022/12/02 04:40:56;;;;;;;0.45;0.45;;;4.90;99.90;;;;;;5031317;28;20056;-64
2022/12/02 04:43:22;;;;;;;1.27;1.20;;;4.90;99.90;;;;;;5026055;28;20037;-64
2022/12/02 04:45:48;;;;;;;1.45;0.80;;;4.90;99.90;;;;;;5014839;28;20044;-64
2022/12/02 04:48:13;;;;;;;1.10;0.95;;;4.90;99.90;;;;;;5031239;28;20072;-64
2022/12/02 04:50:39;;;;;;;0.40;0.40;;;4.90;99.90;;;;;;5031501;28;20054;-64
2022/12/02 04:53:04;;;;;;;1.85;1.75;;;4.90;99.90;;;;;;5022588;28;20026;-64
2022/12/02 04:55:30;;;;;;;1.38;1.20;;;4.90;99.90;;;;;;5034663;28;20120;-65
2022/12/02 04:57:55;;;;;;;0.10;0.10;;;5.00;99.90;;;;;;5030958;28;20049;-64
2022/12/02 05:00:21;;;;;;;1.17;1.10;;;5.00;99.90;;;;;;5032058;28;20045;-64
2022/12/02 05:02:46;;;;;;;8.07;2.35;;;4.90;99.90;;;;;;5020596;28;20042;-64
2022/12/02 05:05:12;;;;;;;0.93;0.93;;;4.90;99.90;;;;;;5024530;28;20251;-64
2022/12/02 05:07:38;;;;;;;1.20;1.20;;;4.90;99.90;;;;;;5031793;28;20041;-64
2022/12/02 05:10:04;;;;;;;3.15;2.40;;;5.00;99.90;;;;;;5035890;28;20102;-64
2022/12/02 05:12:30;;;;;;;2.38;2.20;;;4.90;99.90;;;;;;5028388;28;20112;-64
2022/12/02 05:14:55;;;;;;;0.88;0.88;;;4.90;99.90;;;;;;5026023;28;20057;-64
2022/12/02 05:17:21;;;;;;;1.58;1.48;;;4.90;99.90;;;;;;5022793;28;20045;-64
2022/12/02 05:19:47;;;;;;;1.15;1.15;;;4.90;99.90;;;;;;5014967;28;20507;-64
2022/12/02 05:22:12;;;;;;;5.47;3.90;;;4.90;99.90;;;;;;5011728;28;20145;-64
2022/12/02 05:24:39;;;;;;;0.57;0.57;;;4.90;99.90;;;;;;5024844;28;20094;-64
2022/12/02 05:27:04;;;;;;;0.98;0.75;;;4.80;99.90;;;;;;5051153;28;20041;-64
2022/12/02 05:29:30;;;;;;;1.33;1.23;;;4.90;99.90;;;;;;5031666;28;20111;-64
2022/12/02 05:31:55;;;;;;;1.75;1.65;;;4.90;99.90;;;;;;5017134;28;20049;-64
2022/12/02 05:34:21;;;;;;;0.55;0.55;;;4.90;99.90;;;;;;5011571;28;20046;-64
2022/12/02 05:36:47;;;;;;;3.45;1.27;;;4.90;99.90;;;;;;5010116;28;20145;-64
2022/12/02 05:39:12;;;;;;;3.33;3.03;;;4.90;99.90;;;;;;5022336;28;20045;-64
2022/12/02 05:41:38;;;;;;;1.70;1.20;;;5.00;99.90;;;;;;5034960;28;20495;-64
2022/12/02 05:44:24;;;;;;;0.90;0.88;;;4.90;99.90;;;;;;5031078;28;20406;-64
2022/12/02 05:46:51;;;;;;;0.20;0.20;;;4.90;99.90;;;;;;5010209;28;20088;-64
2022/12/02 05:49:20;;;;;;;1.52;1.42;;;4.90;99.90;;;;;;5011442;28;20547;-64
2022/12/02 05:51:55;;;;;;;0.47;0.47;;;4.90;99.90;;;;;;5025347;28;20048;-64
2022/12/02 05:54:20;;;;;;;1.90;1.67;;;4.90;99.90;;;;;;5032720;28;20040;-63
2022/12/02 05:56:47;;;;;;;1.55;1.38;;;4.80;99.90;;;;;;5029346;28;20055;-64
2022/12/02 05:59:15;;;;;;;2.35;1.38;;;4.80;99.90;;;;;;5013075;28;20129;-64
2022/12/02 06:01:42;;;;;;;1.90;1.10;;;4.70;99.90;;;;;;5010467;28;20111;-64
2022/12/02 06:04:23;;;;;;;2.38;1.77;;;4.70;99.90;;;;;;5010403;28;20053;-64
2022/12/02 06:06:52;;;;;;;9.57;2.33;;;4.60;99.90;;;;;;5010041;28;20049;-64
2022/12/02 06:09:22;;;;;;;1.17;1.17;;;4.60;99.90;;;;;;5022316;28;20116;-64
2022/12/02 06:11:48;;;;;;;0.73;0.73;;;4.60;99.90;;;;;;5014295;28;20056;-64
2022/12/02 06:14:19;;;;;;;5.57;1.35;;;4.50;99.90;;;;;;5028618;28;20083;-64
2022/12/02 06:16:52;;;;;;;1.10;1.10;;;4.60;99.90;;;;;;5030266;28;20045;-64
2022/12/02 06:19:43;;;;;;;2.55;1.65;;;4.50;99.90;;;;;;5028109;28;20041;-64
2022/12/02 06:22:16;;;;;;;1.30;1.20;;;4.50;99.90;;;;;;5022861;28;20045;-64
2022/12/02 06:24:42;;;;;;;2.08;1.98;;;4.50;99.90;;;;;;5029675;28;20041;-65
2022/12/02 06:27:12;;;;;;;1.67;1.58;;;4.50;99.90;;;;;;5025570;28;20096;-64
2022/12/02 06:29:42;;;;;;;0.43;0.43;;;4.50;99.90;;;;;;5022012;28;20109;-64
2022/12/02 06:32:14;;;;;;;3.95;3.67;;;4.40;99.90;;;;;;5050220;28;20053;-64
2022/12/02 06:34:42;;;;;;;0.68;0.68;;;4.30;99.90;;;;;;5013022;28;20100;-64
2022/12/02 06:37:21;;;;;;;3.00;1.25;;;4.30;99.90;;;;;;5020282;28;20049;-64
2022/12/02 06:39:52;;;;;;;0.93;0.93;;;4.30;99.90;;;;;;5014589;28;20049;-65
2022/12/02 06:42:28;;;;;;;5.20;1.77;;;4.30;99.90;;;;;;5045896;28;20053;-64
2022/12/02 06:45:13;;;;;;;6.82;3.58;;;4.30;99.90;;;;;;5038917;28;20045;-64
2022/12/02 06:47:49;;;;;;;2.92;2.72;;;4.30;99.90;;;;;;5009505;28;20473;-64
2022/12/02 06:50:40;;;;;;;0.80;0.80;;;4.20;99.90;;;;;;5009808;28;20749;-64
2022/12/02 06:53:08;;;;;;;1.63;1.52;;;4.20;99.90;;;;;;5017007;28;20053;-64
2022/12/02 06:55:36;;;;;;;5.65;1.55;;;4.20;99.90;;;;;;5017968;28;20050;-64
2022/12/02 06:58:32;;;;;;;6.63;2.38;;;4.20;99.90;;;;;;5016675;28;20417;-64
2022/12/02 07:01:27;;;;;;;1.35;1.27;;;4.20;99.90;;;;;;5015190;28;20388;-64
2022/12/02 07:04:03;;;;;;;1.58;1.48;;;4.20;99.90;;;;;;5007351;28;20088;-64
2022/12/02 07:06:30;;;;;;;1.73;1.63;;;4.20;99.90;;;;;;5018231;28;20071;-64
2022/12/02 07:08:58;;;;;;;3.67;3.03;;;4.20;99.90;;;;;;5046657;28;20481;-64
2022/12/02 07:11:49;;;;;;;4.20;3.05;;;4.20;99.90;;;;;;5018895;28;20041;-64
2022/12/02 07:14:45;;;;;;;0.75;0.75;;;4.20;99.90;;;;;;5032746;28;20074;-64
2022/12/02 07:17:40;;;;;;;0.20;0.20;;;4.20;99.90;;;;;;5016597;28;20564;-64
2022/12/02 07:20:06;;;;;;;0.35;0.35;;;4.20;99.90;;;;;;5008945;28;20077;-65
2022/12/02 07:22:37;;;;;;;0.57;0.57;;;4.30;99.90;;;;;;5013892;28;20077;-64
2022/12/02 07:25:06;;;;;;;5.47;2.20;;;4.30;99.90;;;;;;5007079;28;20452;-64
2022/12/02 07:27:36;;;;;;;1.48;1.23;;;4.30;99.90;;;;;;5015302;28;20060;-64
2022/12/02 07:30:05;;;;;;;0.52;0.52;;;4.30;99.90;;;;;;5009004;28;20092;-64
2022/12/02 07:32:31;;;;;;;0.40;0.40;;;4.30;99.90;;;;;;5007919;28;20050;-64
2022/12/02 07:34:58;;;;;;;32.35;3.85;;;4.30;99.90;;;;;;5007768;28;20277;-64
2022/12/02 07:37:23;;;;;;;0.93;0.93;;;4.30;99.90;;;;;;5021788;28;20041;-64
2022/12/02 07:39:49;;;;;;;4.20;2.65;;;4.40;99.90;;;;;;5027372;28;20080;-65
2022/12/02 07:42:14;;;;;;;2.30;2.20;;;4.40;99.90;;;;;;5021687;28;20095;-65
2022/12/02 07:44:40;;;;;;;3.05;1.90;;;4.40;99.90;;;;;;5008403;28;20100;-64
2022/12/02 07:47:06;;;;;;;2.47;2.28;;;4.40;99.90;;;;;;5012948;28;20572;-64
2022/12/02 07:49:32;;;;;;;2.60;2.50;;;4.30;99.90;;;;;;5007955;28;20077;-64
2022/12/02 07:51:57;;;;;;;0.73;0.73;;;4.30;99.90;;;;;;5007476;28;20100;-64
2022/12/02 07:54:23;;;;;;;1.98;1.85;;;4.30;99.90;;;;;;5006831;28;20046;-64
2022/12/02 07:56:48;;;;;;;0.70;0.70;;;4.30;99.90;;;;;;5026560;28;20481;-64
2022/12/02 07:59:14;;;;;;;2.65;2.10;;;4.30;99.90;;;;;;5020251;28;20104;-64
2022/12/02 08:01:40;;;;;;;1.00;1.00;;;4.30;99.90;;;;;;5008590;28;20042;-64
2022/12/02 08:04:05;;;;;;;2.30;2.15;;;4.30;99.90;;;;;;5006637;28;20049;-64
2022/12/02 08:06:31;;;;;;;1.77;1.48;;;4.20;99.90;;;;;;5008215;28;20109;-64
2022/12/02 08:08:56;;;;;;;7.22;1.85;;;4.20;99.90;;;;;;5008521;28;20050;-65
2022/12/02 08:11:22;;;;;;;1.27;1.13;;;4.30;99.90;;;;;;5021994;28;20041;-64
2022/12/02 08:13:48;;;;;;;0.75;0.75;;;4.20;99.90;;;;;;5022298;28;20042;-65
2022/12/02 08:16:13;;;;;;;2.53;2.17;;;4.30;99.90;;;;;;5026278;28;20039;-64
2022/12/02 08:18:39;;;;;;;1.15;1.08;;;4.20;99.90;;;;;;5018678;28;20044;-65
2022/12/02 08:21:04;;;;;;;1.75;1.65;;;4.20;99.90;;;;;;5029588;28;20100;-64
2022/12/02 08:23:30;;;;;;;0.57;0.57;;;4.30;99.90;;;;;;5015662;28;20037;-64
2022/12/02 08:25:55;;;;;;;1.05;1.05;;;4.20;99.90;;;;;;5025616;28;20476;-64
2022/12/02 08:28:21;;;;;;;4.68;1.65;;;4.30;99.90;;;;;;5022112;28;20050;-64
2022/12/02 08:30:47;;;;;;;6.90;1.95;;;4.30;99.90;;;;;;5014128;28;20072;-64
2022/12/02 08:33:12;;;;;;;0.80;0.80;;;4.30;99.90;;;;;;5016385;28;20644;-64
2022/12/02 08:35:38;;;;;;;1.05;1.02;;;4.40;99.90;;;;;;5022913;28;20049;-64
2022/12/02 08:38:06;;;;;;;0.50;0.50;;;4.50;99.90;;;;;;5018269;28;20049;-64
2022/12/02 08:40:33;;;;;;;1.08;0.43;;;4.50;99.90;;;;;;5025182;28;20136;-64
2022/12/02 08:43:00;;;;;;;1.35;1.25;;;4.50;99.90;;;;;;5016172;28;20049;-64
2022/12/02 08:45:26;;;;;;;0.60;0.60;;;4.50;99.90;;;;;;5013502;28;20088;-65
2022/12/02 08:47:51;;;;;;;0.35;0.35;;;4.60;99.90;;;;;;5026505;28;20057;-64
2022/12/02 08:50:17;;;;;;;0.43;0.43;;;4.70;99.90;;;;;;5021965;28;20137;-64
2022/12/02 08:52:42;;;;;;;1.17;1.17;;;4.70;99.90;;;;;;5016132;28;20382;-64
2022/12/02 08:55:08;;;;;;;3.53;1.85;;;4.80;99.90;;;;;;5030266;28;20042;-64
2022/12/02 08:57:34;;;;;;;1.75;1.65;;;4.90;99.90;;;;;;5025354;28;20048;-64
2022/12/02 08:59:59;;;;;;;0.80;0.80;;;5.00;99.90;;;;;;5021161;28;20045;-64
2022/12/02 09:02:25;;;;;;;9.95;1.27;;;5.00;99.90;;;;;;5015405;28;20052;-64
2022/12/02 09:04:50;;;;;;;0.85;0.85;;;5.10;99.90;;;;;;5024474;28;20067;-64
2022/12/02 09:07:16;;;;;;;0.47;0.47;;;5.20;99.90;;;;;;5015056;28;20054;-64
2022/12/02 09:09:42;;;;;;;1.80;1.67;;;5.20;99.90;;;;;;5016954;28;20083;-65
2022/12/02 09:12:08;;;;;;;0.68;0.68;;;5.40;99.90;;;;;;5025964;28;20057;-64
2022/12/02 09:14:33;;;;;;;2.78;2.53;;;5.50;99.90;;;;;;5012085;28;20049;-64
2022/12/02 09:16:59;;;;;;;1.00;1.00;;;5.60;99.90;;;;;;5016787;28;20516;-64
2022/12/02 09:19:24;;;;;;;1.58;1.48;;;5.40;99.90;;;;;;5015709;28;20095;-65
2022/12/02 09:21:50;;;;;;;4.28;3.03;;;5.50;99.90;;;;;;5029953;28;20397;-64
2022/12/02 09:24:15;;;;;;;2.20;2.10;;;5.40;99.90;;;;;;5020726;28;20441;-65
2022/12/02 09:26:41;;;;;;;2.60;2.47;;;5.40;99.90;;;;;;5010728;28;20053;-64
2022/12/02 09:29:06;;;;;;;0.47;0.47;;;5.50;99.90;;;;;;5015270;28;20045;-65
2022/12/02 09:31:32;;;;;;;5.28;4.05;;;5.50;99.90;;;;;;5021498;28;20057;-64
2022/12/02 09:33:57;;;;;;;2.10;1.90;;;5.40;99.90;;;;;;5031017;28;20100;-64
2022/12/02 09:36:23;;;;;;;3.22;2.38;;;5.60;99.90;;;;;;5026246;28;20045;-64
2022/12/02 09:38:49;;;;;;;0.77;0.77;;;5.60;99.90;;;;;;5024243;28;20099;-64
2022/12/02 09:41:14;;;;;;;1.02;1.02;;;5.60;99.90;;;;;;5029203;28;20129;-64
2022/12/02 09:43:41;;;;;;;1.45;0.73;;;5.60;99.90;;;;;;5031019;28;20042;-64
2022/12/02 09:46:08;;;;;;;2.25;1.85;;;5.60;99.90;;;;;;5014157;28;20056;-65
2022/12/02 09:48:34;;;;;;;7.18;2.55;;;5.60;99.90;;;;;;5023194;28;20344;-64
2022/12/02 09:51:00;;;;;;;1.10;0.55;;;5.50;99.90;;;;;;5030655;28;20084;-65
2022/12/02 09:53:31;;;;;;;0.45;0.45;;;5.60;99.90;;;;;;5028860;28;20052;-65
2022/12/02 09:55:57;;;;;;;3.17;2.95;;;5.40;99.90;;;;;;5018480;28;20089;-65
2022/12/02 09:58:23;;;;;;;2.25;2.08;;;5.40;99.90;;;;;;5010450;28;20075;-65
2022/12/02 10:00:51;;;;;;;3.67;2.30;;;5.30;99.90;;;;;;5022409;28;20076;-65
2022/12/02 10:03:20;;;;;;;0.70;0.70;;;5.20;99.90;;;;;;5014838;28;20092;-65
2022/12/02 10:05:46;;;;;;;0.50;0.50;;;5.20;99.90;;;;;;5009572;28;20130;-65
2022/12/02 10:08:17;;;;;;;0.80;0.80;;;5.30;99.90;;;;;;5010696;28;20128;-65
2022/12/02 10:10:44;;;;;;;0.43;0.43;;;5.20;99.90;;;;;;5019020;28;20042;-65
2022/12/02 10:13:18;;;;;;;3.55;2.25;;;5.20;99.90;;;;;;5010587;28;20053;-65
2022/12/02 10:15:44;;;;;;;1.05;0.95;;;5.30;99.90;;;;;;5016643;28;20119;-64
2022/12/02 10:18:20;;;;;;;4.43;1.63;;;5.40;99.90;;;;;;5019794;28;20486;-65
2022/12/02 10:20:46;;;;;;;0.45;0.45;;;5.30;99.90;;;;;;5015227;28;20128;-65
2022/12/02 10:23:13;;;;;;;0.85;0.85;;;5.30;99.90;;;;;;5011354;28;20049;-65
2022/12/02 10:25:43;;;;;;;1.73;1.10;;;5.20;99.90;;;;;;5010047;28;20390;-65
2022/12/02 10:28:32;;;;;;;0.60;0.60;;;5.20;99.90;;;;;;5010099;28;20045;-65
2022/12/02 10:31:12;;;;;;;0.20;0.20;;;5.10;99.90;;;;;;5014041;28;20046;-65
2022/12/02 10:33:49;;;;;;;2.55;1.85;;;5.10;99.90;;;;;;5036377;28;20429;-65
2022/12/02 10:36:35;;;;;;;0.45;0.45;;;5.20;99.90;;;;;;5019188;28;20140;-65
2022/12/02 10:39:19;;;;;;;1.27;0.93;;;5.30;99.90;;;;;;5025917;28;20037;-65
2022/12/02 10:42:04;;;;;;;1.40;1.33;;;5.40;99.90;;;;;;5015220;28;20378;-65
2022/12/02 10:44:43;;;;;;;0.10;0.10;;;5.40;99.90;;;;;;5012065;28;20506;-65
2022/12/02 10:47:18;;;;;;;3.97;0.63;;;5.30;99.90;;;;;;5010702;28;20113;-65
2022/12/02 10:49:54;;;;;;;0.85;0.85;;;5.20;99.90;;;;;;5025893;28;20044;-65
2022/12/02 10:52:32;;;;;;;0.85;0.85;;;5.20;99.90;;;;;;5010635;28;20042;-66
2022/12/02 10:54:59;;;;;;;1.42;1.33;;;5.20;99.90;;;;;;5009498;28;20775;-65
2022/12/02 10:57:27;;;;;;;7.05;1.83;;;5.20;99.90;;;;;;5012097;28;20049;-65
2022/12/02 10:59:55;;;;;;;7.50;2.42;;;5.10;99.90;;;;;;5009742;28;20497;-65
2022/12/02 11:02:29;;;;;;;2.53;1.50;;;5.20;99.90;;;;;;5011547;28;20488;-64
2022/12/02 11:04:54;;;;;;;;;;;5.10;99.90;;;;;;5022238;28;20516;-65
2022/12/02 11:07:22;;;;;;;1.08;1.02;;;5.20;99.90;;;;;;5013410;28;19921;-65
2022/12/02 11:09:53;;;;;;;0.40;0.40;;;5.30;99.90;;;;;;5034495;28;20179;-64
2022/12/02 11:12:48;;;;;;;0.10;0.10;;;5.20;99.90;;;;;;5036089;28;20040;-65
2022/12/02 11:15:39;;;;;;;0.45;0.45;;;5.30;99.90;;;;;;4989414;28;20046;-65
2022/12/02 11:18:11;;;;;;;1.27;1.02;;;5.30;99.90;;;;;;5016895;28;20034;-65
2022/12/02 11:20:43;;;;;;;1.08;1.05;;;5.40;99.90;;;;;;5025575;28;20116;-65
2022/12/02 11:23:22;;;;;;;0.17;0.17;;;5.70;99.90;;;;;;5018469;28;20048;-65
2022/12/02 11:25:55;;;;;;;1.27;1.27;;;5.80;99.90;;;;;;5032425;28;20046;-65
2022/12/02 11:28:27;;;;;;;0.30;0.30;;;6.00;99.90;;;;;;5017162;28;20038;-65
2022/12/02 11:31:24;;;;;;;0.10;0.10;;;6.30;99.90;;;;;;5020355;28;20058;-65
2022/12/02 11:33:54;;;;;;;2.97;2.22;;;6.40;99.90;;;;;;5027369;28;20142;-65
2022/12/02 11:36:24;;;;;;;2.28;2.05;;;6.50;99.90;;;;;;5020467;28;20046;-65
2022/12/02 11:38:50;;;;;;;3.83;2.42;;;6.50;99.90;;;;;;5014534;28;20384;-64
2022/12/02 11:41:21;;;;;;;2.40;2.10;;;6.40;99.90;;;;;;5028100;28;20037;-64
2022/12/02 11:43:46;;;;;;;0.45;0.45;;;6.30;99.90;;;;;;5026337;28;20064;-65
2022/12/02 11:46:20;;;;;;;0.10;0.10;;;6.20;99.90;;;;;;5021905;28;20049;-65
2022/12/02 11:48:52;;;;;;;2.25;2.08;;;6.00;99.90;;;;;;5021497;28;20179;-65
2022/12/02 11:51:32;;;;;;;0.63;0.60;;;6.00;99.90;;;;;;5021684;28;20485;-66
2022/12/02 11:53:59;;;;;;;3.05;2.85;;;5.80;99.90;;;;;;5026761;28;20053;-65
2022/12/02 11:56:37;;;;;;;0.75;0.75;;;5.80;99.90;;;;;;5013501;28;20045;-65
2022/12/02 11:59:20;;;;;;;0.52;0.52;;;5.60;99.90;;;;;;5020515;28;20073;-65
2022/12/02 12:01:47;;;;;;;2.85;2.65;;;5.40;99.90;;;;;;5037990;28;20480;-65
2022/12/02 12:04:42;;;;;;;0.65;0.65;;;5.30;99.90;;;;;;5017098;28;20046;-65
2022/12/02 12:07:09;;;;;;;0.30;0.30;;;5.60;99.90;;;;;;5011493;28;20070;-65
2022/12/02 12:09:35;;;;;;;0.40;0.40;;;5.50;99.90;;;;;;5014105;28;20164;-64
2022/12/02 12:12:08;;;;;;;1.88;1.77;;;5.40;99.90;;;;;;5021378;28;20444;-64
2022/12/02 12:15:03;;;;;;;1.02;1.02;;;5.40;99.90;;;;;;5010744;28;20540;-64
2022/12/02 12:17:39;;;;;;;0.98;0.98;;;5.60;99.90;;;;;;5032163;28;20117;-64
2022/12/02 12:20:24;;;;;;;0.75;0.75;;;5.90;99.90;;;;;;5030347;28;20497;-65
2022/12/02 12:22:50;;;;;;;0.75;0.75;;;6.10;99.90;;;;;;5022058;28;20042;-65
2022/12/02 12:25:41;;;;;;;8.18;3.20;;;6.10;99.90;;;;;;5032866;28;20044;-65
2022/12/02 12:28:26;;;;;;;1.27;1.27;;;6.20;99.90;;;;;;5017945;28;20049;-65
2022/12/02 12:30:52;;;;;;;3.67;1.17;;;6.30;99.90;;;;;;5014306;28;20065;-65
2022/12/02 12:33:18;;;;;;;1.25;1.15;;;6.30;99.90;;;;;;5028147;28;20410;-65
2022/12/02 12:35:43;;;;;;;1.67;1.58;;;6.20;99.90;;;;;;5027153;28;20382;-65
2022/12/02 12:38:09;;;;;;;1.88;1.77;;;6.20;99.90;;;;;;5027762;28;20056;-65
2022/12/02 12:40:34;;;;;;;1.60;1.50;;;6.10;99.90;;;;;;5019565;28;20072;-65
2022/12/02 12:43:00;;;;;;;3.40;2.47;;;6.00;99.90;;;;;;5016017;28;20152;-65
2022/12/02 12:45:25;;;;;;;8.15;4.68;;;6.00;99.90;;;;;;5025477;28;20485;-65
2022/12/02 12:47:51;;;;;;;0.20;0.20;;;6.00;99.90;;;;;;5028717;28;20248;-65
2022/12/02 12:50:17;;;;;;;2.13;1.92;;;6.00;99.90;;;;;;5032320;28;20042;-65
2022/12/02 12:52:42;;;;;;;0.95;0.95;;;6.10;99.90;;;;;;5031657;28;20489;-65
2022/12/02 12:55:08;;;;;;;2.70;2.47;;;5.90;99.90;;;;;;5022338;28;20076;-65
2022/12/02 12:57:33;;;;;;;1.35;1.33;;;5.90;99.90;;;;;;5011396;28;20065;-65
2022/12/02 12:59:59;;;;;;;0.80;0.80;;;6.10;99.90;;;;;;5014380;28;20064;-65
2022/12/02 13:02:25;;;;;;;1.85;1.75;;;6.00;99.90;;;;;;5030550;28;20053;-65
2022/12/02 13:04:50;;;;;;;2.58;2.47;;;6.00;99.90;;;;;;5014014;28;20038;-65
2022/12/02 13:07:16;;;;;;;1.08;0.90;;;5.90;99.90;;;;;;5012116;28;20413;-65
2022/12/02 13:09:42;;;;;;;0.68;0.68;;;5.90;99.90;;;;;;5018063;28;20370;-65